createdAt,value
2019-03-16T00:00:51.278Z,96.90
2019-03-16T00:03:19.188Z,97.60
2019-03-16T00:05:47.434Z,98.00
2019-03-16T00:08:15.678Z,97.40
2019-03-16T00:10:43.804Z,97.20
2019-03-16T00:13:11.892Z,97.40
2019-03-16T00:15:39.789Z,97.60
2019-03-16T00:18:07.894Z,98.80
2019-03-16T00:20:35.825Z,98.90
2019-03-16T00:23:03.735Z,98.90
2019-03-16T00:25:31.885Z,97.90
2019-03-16T00:27:59.669Z,96.70
2019-03-16T00:30:27.513Z,98.30
2019-03-16T00:32:55.288Z,98.30
2019-03-16T00:35:23.207Z,97.90
2019-03-16T00:37:51.036Z,97.30
2019-03-16T00:40:19.047Z,97.30
2019-03-16T00:42:46.833Z,96.30
2019-03-16T00:45:14.838Z,96.40
2019-03-16T00:47:42.720Z,95.80
2019-03-16T00:50:11.122Z,97.80
2019-03-16T00:52:39.218Z,97.20
2019-03-16T00:55:07.247Z,98.90
2019-03-16T00:57:35.139Z,99.90
2019-03-16T01:00:03.385Z,99.90
2019-03-16T01:02:32.887Z,99.90
2019-03-16T01:05:00.986Z,99.90
2019-03-16T01:07:28.827Z,99.90
2019-03-16T01:09:57.310Z,99.80
2019-03-16T01:12:25.372Z,99.90
2019-03-16T01:14:53.536Z,99.70
2019-03-16T01:17:21.602Z,99.90
2019-03-16T01:19:49.867Z,99.90
2019-03-16T01:22:17.796Z,99.90
2019-03-16T01:24:45.721Z,99.90
2019-03-16T01:27:13.682Z,99.90
2019-03-16T01:29:41.744Z,99.90
2019-03-16T01:32:09.885Z,99.90
2019-03-16T01:34:37.969Z,99.90
2019-03-16T01:37:05.925Z,99.90
2019-03-16T01:39:33.684Z,99.90
2019-03-16T01:42:01.808Z,99.90
2019-03-16T01:44:29.746Z,99.90
2019-03-16T01:46:57.534Z,99.90
2019-03-16T01:49:25.656Z,99.90
2019-03-16T01:51:53.603Z,99.60
2019-03-16T01:54:21.436Z,99.90
2019-03-16T01:56:49.436Z,99.90
2019-03-16T01:59:17.327Z,99.50
2019-03-16T02:01:45.204Z,99.90
2019-03-16T02:04:13.493Z,99.90
2019-03-16T02:06:41.364Z,99.90
2019-03-16T02:09:09.421Z,99.90
2019-03-16T02:11:37.322Z,99.90
2019-03-16T02:14:05.484Z,99.90
2019-03-16T02:16:33.515Z,99.90
2019-03-16T02:19:01.346Z,99.90
2019-03-16T02:21:29.386Z,99.90
2019-03-16T02:23:57.271Z,99.90
2019-03-16T02:26:25.229Z,99.90
2019-03-16T02:28:52.959Z,99.90
2019-03-16T02:31:20.890Z,99.90
2019-03-16T02:33:48.847Z,99.90
2019-03-16T02:36:16.841Z,99.90
2019-03-16T02:38:44.781Z,99.90
2019-03-16T02:41:12.652Z,99.90
2019-03-16T02:43:40.700Z,99.90
2019-03-16T02:46:08.555Z,99.90
2019-03-16T02:48:36.386Z,99.90
2019-03-16T02:53:32.136Z,99.90
2019-03-16T02:55:59.918Z,99.90
2019-03-16T02:58:28.237Z,99.90
2019-03-16T03:00:56.142Z,99.90
2019-03-16T03:03:29.924Z,99.90
2019-03-16T03:05:53.799Z,99.90
2019-03-16T03:08:21.607Z,99.90
2019-03-16T03:10:49.634Z,99.90
2019-03-16T03:13:17.605Z,99.90
2019-03-16T03:15:45.615Z,99.90
2019-03-16T03:18:13.593Z,99.20
2019-03-16T03:20:41.742Z,99.20
2019-03-16T03:23:09.647Z,98.10
2019-03-16T03:25:37.637Z,98.90
2019-03-16T03:28:05.690Z,98.30
2019-03-16T03:30:33.673Z,98.20
2019-03-16T03:33:01.768Z,99.60
2019-03-16T03:35:29.887Z,98.30
2019-03-16T03:37:57.943Z,99.60
2019-03-16T03:40:26.020Z,98.70
2019-03-16T03:42:53.941Z,98.70
2019-03-16T03:45:22.010Z,99.10
2019-03-16T03:47:49.934Z,97.60
2019-03-16T03:50:17.900Z,97.20
2019-03-16T03:52:46.056Z,97.00
2019-03-16T03:55:14.047Z,96.70
2019-03-16T03:57:42.362Z,96.70
2019-03-16T04:00:10.865Z,98.00
2019-03-16T04:02:39.116Z,95.50
2019-03-16T04:05:07.357Z,99.10
2019-03-16T04:07:35.837Z,96.20
2019-03-16T04:10:05.133Z,98.30
2019-03-16T04:12:33.137Z,97.50
2019-03-16T04:15:01.167Z,98.30
2019-03-16T04:17:29.130Z,99.60
2019-03-16T04:19:57.298Z,99.00
2019-03-16T04:22:25.555Z,99.70
2019-03-16T04:24:53.696Z,98.80
2019-03-16T04:27:21.811Z,99.90
2019-03-16T04:29:49.817Z,99.90
2019-03-16T04:32:17.770Z,99.90
2019-03-16T04:34:46.180Z,99.90
2019-03-16T04:37:14.157Z,99.90
2019-03-16T04:39:42.373Z,99.90
2019-03-16T04:42:09.866Z,98.90
2019-03-16T04:44:37.396Z,99.90
2019-03-16T04:47:04.960Z,98.00
2019-03-16T04:49:32.566Z,97.10
2019-03-16T04:52:00.099Z,96.10
2019-03-16T04:54:27.763Z,96.70
2019-03-16T04:56:55.296Z,96.40
2019-03-16T04:59:22.887Z,96.60
2019-03-16T05:01:50.443Z,96.10
2019-03-16T05:04:17.980Z,95.60
2019-03-16T05:06:45.590Z,94.50
2019-03-16T05:09:13.139Z,93.50
2019-03-16T05:11:40.680Z,93.30
2019-03-16T05:14:08.222Z,93.20
2019-03-16T05:16:35.829Z,92.00
2019-03-16T05:19:03.410Z,91.10
2019-03-16T05:21:31.044Z,90.50
2019-03-16T05:23:58.574Z,89.90
2019-03-16T05:26:26.160Z,90.30
2019-03-16T05:28:53.745Z,90.00
2019-03-16T05:31:21.311Z,89.90
2019-03-16T05:33:48.843Z,89.90
2019-03-16T05:36:16.445Z,89.70
2019-03-16T05:38:44.079Z,89.20
2019-03-16T05:41:11.609Z,88.70
2019-03-16T05:43:39.300Z,88.40
2019-03-16T05:46:06.897Z,88.10
2019-03-16T05:48:34.381Z,87.60
2019-03-16T05:51:01.965Z,87.10
2019-03-16T05:53:29.575Z,84.50
2019-03-16T05:55:57.172Z,84.70
2019-03-16T05:58:24.727Z,84.00
2019-03-16T06:00:52.366Z,83.50
2019-03-16T06:03:20.000Z,81.40
2019-03-16T06:05:47.500Z,81.20
2019-03-16T06:08:15.032Z,81.60
2019-03-16T06:10:42.589Z,81.10
2019-03-16T06:13:10.148Z,81.00
2019-03-16T06:15:37.720Z,81.00
2019-03-16T06:18:05.311Z,81.10
2019-03-16T06:20:32.839Z,80.90
2019-03-16T06:23:00.388Z,82.40
2019-03-16T06:25:27.881Z,81.10
2019-03-16T06:27:55.461Z,80.20
2019-03-16T06:30:23.015Z,79.40
2019-03-16T06:32:50.514Z,79.50
2019-03-16T06:35:24.318Z,79.70
2019-03-16T06:37:47.945Z,78.80
2019-03-16T06:40:15.468Z,78.10
2019-03-16T06:42:43.020Z,77.10
2019-03-16T06:45:10.775Z,77.40
2019-03-16T06:47:38.316Z,78.20
2019-03-16T06:50:06.741Z,75.70
2019-03-16T06:52:34.318Z,74.30
2019-03-16T06:55:01.894Z,74.10
2019-03-16T06:57:29.437Z,73.80
2019-03-16T06:59:56.971Z,72.40
2019-03-16T07:02:24.465Z,73.10
2019-03-16T07:04:52.143Z,73.40
2019-03-16T07:07:19.741Z,71.90
2019-03-16T07:09:47.277Z,71.90
2019-03-16T07:12:14.799Z,71.60
2019-03-16T07:14:42.347Z,72.00
2019-03-16T07:17:09.883Z,72.40
2019-03-16T07:19:37.444Z,72.30
2019-03-16T07:22:05.041Z,70.40
2019-03-16T07:24:32.564Z,71.20
2019-03-16T07:27:00.087Z,70.60
2019-03-16T07:29:27.653Z,71.20
2019-03-16T07:31:55.173Z,71.00
2019-03-16T07:34:22.736Z,71.20
2019-03-16T07:36:50.474Z,69.80
2019-03-16T07:39:18.746Z,69.60
2019-03-16T07:41:47.337Z,69.50
2019-03-16T07:44:14.856Z,69.00
2019-03-16T07:46:42.458Z,69.20
2019-03-16T07:49:10.102Z,67.70
2019-03-16T07:51:37.777Z,67.00
2019-03-16T07:54:05.560Z,66.30
2019-03-16T07:56:33.145Z,66.30
2019-03-16T07:59:00.700Z,66.40
2019-03-16T08:01:28.797Z,66.20
2019-03-16T08:03:57.344Z,64.80
2019-03-16T08:06:24.979Z,65.10
2019-03-16T08:08:52.585Z,66.50
2019-03-16T08:11:20.291Z,66.90
2019-03-16T08:13:48.508Z,66.50
2019-03-16T08:16:16.354Z,67.10
2019-03-16T08:18:44.031Z,65.50
2019-03-16T08:21:11.670Z,62.70
2019-03-16T08:23:39.260Z,63.50
2019-03-16T08:26:06.978Z,64.50
2019-03-16T08:28:34.957Z,64.90
2019-03-16T08:31:03.636Z,66.90
2019-03-16T08:33:31.517Z,67.40
2019-03-16T08:35:59.852Z,67.20
2019-03-16T08:38:27.644Z,66.90
2019-03-16T08:40:55.445Z,67.20
2019-03-16T08:43:23.845Z,67.30
2019-03-16T08:45:53.473Z,68.30
2019-03-16T08:48:23.038Z,69.00
2019-03-16T08:50:50.920Z,69.10
2019-03-16T08:53:18.654Z,70.20
2019-03-16T08:55:46.272Z,70.50
2019-03-16T08:58:14.379Z,71.20
2019-03-16T09:00:43.116Z,71.00
2019-03-16T09:03:13.109Z,71.20
2019-03-16T09:05:40.784Z,71.30
2019-03-16T09:08:09.940Z,70.20
2019-03-16T09:10:38.159Z,69.70
2019-03-16T09:13:05.894Z,69.60
2019-03-16T09:15:33.943Z,69.60
2019-03-16T09:18:05.241Z,69.20
2019-03-16T09:20:36.585Z,68.50
2019-03-16T09:23:05.857Z,68.40
2019-03-16T09:25:34.137Z,68.60
2019-03-16T09:28:02.001Z,69.50
2019-03-16T09:30:29.737Z,67.80
2019-03-16T09:32:57.561Z,67.40
2019-03-16T09:35:25.107Z,67.60
2019-03-16T09:37:53.185Z,67.60
2019-03-16T09:40:21.074Z,69.20
2019-03-16T09:42:48.780Z,70.10
2019-03-16T09:45:16.603Z,70.90
2019-03-16T09:47:44.215Z,70.60
2019-03-16T09:50:11.997Z,71.00
2019-03-16T09:52:39.811Z,70.90
2019-03-16T09:55:07.624Z,70.90
2019-03-16T09:57:37.504Z,70.00
2019-03-16T10:00:07.884Z,69.20
2019-03-16T10:02:37.377Z,67.60
2019-03-16T10:05:05.679Z,67.40
2019-03-16T10:07:33.602Z,68.00
2019-03-16T10:10:01.668Z,69.50
2019-03-16T10:12:29.323Z,69.50
2019-03-16T10:14:57.310Z,68.40
2019-03-16T10:17:24.805Z,66.50
2019-03-16T10:19:57.126Z,66.50
2019-03-16T10:22:30.894Z,66.60
2019-03-16T10:25:01.150Z,66.10
2019-03-16T10:27:29.972Z,66.10
2019-03-16T10:30:05.563Z,67.10
2019-03-16T10:32:34.577Z,67.70
2019-03-16T10:35:04.195Z,68.60
2019-03-16T10:37:32.064Z,67.90
2019-03-16T10:40:00.490Z,67.20
2019-03-16T10:45:55.170Z,69.30
2019-03-16T10:48:21.743Z,68.00
2019-03-16T10:50:53.372Z,67.90
2019-03-16T10:53:21.154Z,68.00
2019-03-16T10:55:49.096Z,66.80
2019-03-16T10:58:17.454Z,66.00
2019-03-16T11:00:45.350Z,62.50
2019-03-16T11:03:26.476Z,62.60
2019-03-16T11:05:54.335Z,63.80
2019-03-16T11:08:22.006Z,64.90
2019-03-16T11:10:49.955Z,63.80
2019-03-16T11:13:17.669Z,62.70
2019-03-16T11:15:45.377Z,64.00
2019-03-16T11:18:13.367Z,62.50
2019-03-16T11:20:41.085Z,63.60
2019-03-16T11:23:08.913Z,64.10
2019-03-16T11:25:36.688Z,64.70
2019-03-16T11:28:04.882Z,63.20
2019-03-16T11:30:32.672Z,62.90
2019-03-16T11:33:00.238Z,64.30
2019-03-16T11:35:27.953Z,63.80
2019-03-16T11:37:55.620Z,61.40
2019-03-16T11:40:23.419Z,60.20
2019-03-16T11:42:51.081Z,60.80
2019-03-16T11:45:18.739Z,60.60
2019-03-16T11:47:46.553Z,62.40
2019-03-16T11:50:14.216Z,63.30
2019-03-16T11:52:41.842Z,60.80
2019-03-16T11:55:09.608Z,62.10
2019-03-16T11:57:37.122Z,60.40
2019-03-16T12:00:04.874Z,59.30
2019-03-16T12:02:32.795Z,56.70
2019-03-16T12:08:46.837Z,57.50
2019-03-16T12:11:17.291Z,58.30
2019-03-16T12:13:45.182Z,57.80
2019-03-16T12:16:13.765Z,58.10
2019-03-16T12:18:41.551Z,55.80
2019-03-16T12:21:09.212Z,57.40
2019-03-16T12:23:37.106Z,57.50
2019-03-16T12:26:05.263Z,57.00
2019-03-16T12:28:32.917Z,57.10
2019-03-16T12:31:00.656Z,56.50
2019-03-16T12:33:28.292Z,55.30
2019-03-16T12:35:56.013Z,55.60
2019-03-16T12:38:23.618Z,55.70
2019-03-16T12:40:51.375Z,54.70
2019-03-16T12:43:19.109Z,55.90
2019-03-16T12:45:46.705Z,55.30
2019-03-16T12:48:14.491Z,55.80
2019-03-16T12:50:42.068Z,55.40
2019-03-16T12:53:09.766Z,53.80
2019-03-16T12:55:37.399Z,53.00
2019-03-16T12:58:14.836Z,54.20
2019-03-16T13:00:42.540Z,54.80
2019-03-16T13:03:10.155Z,54.40
2019-03-16T13:05:38.446Z,54.40
2019-03-16T13:08:06.052Z,54.90
2019-03-16T13:14:09.834Z,54.70
2019-03-16T14:55:33.762Z,52.90
2019-03-16T14:58:01.316Z,52.70
2019-03-16T15:00:38.810Z,52.50
2019-03-16T15:03:03.856Z,52.80
2019-03-16T15:05:34.956Z,53.30
2019-03-16T15:08:02.455Z,54.10
2019-03-16T15:10:30.050Z,54.40
2019-03-16T15:12:57.637Z,54.60
2019-03-16T15:15:25.275Z,54.40
2019-03-16T15:17:52.952Z,54.20
2019-03-16T15:20:20.613Z,53.40
2019-03-16T15:22:48.583Z,53.30
2019-03-16T15:25:16.221Z,53.30
2019-03-16T15:27:48.594Z,52.70
2019-03-16T15:30:16.335Z,52.50
2019-03-16T15:32:43.880Z,52.10
2019-03-16T15:35:11.636Z,52.30
2019-03-16T15:37:39.698Z,52.80
2019-03-16T15:40:08.257Z,51.60
2019-03-16T15:45:38.760Z,51.10
2019-03-16T15:48:43.150Z,52.50
2019-03-16T15:52:02.935Z,50.70
2019-03-16T15:54:34.373Z,49.80
2019-03-16T15:57:02.272Z,51.50
2019-03-16T15:59:31.056Z,51.10
2019-03-16T16:01:58.612Z,50.00
2019-03-16T16:04:26.205Z,49.90
2019-03-16T16:06:53.869Z,50.60
2019-03-16T16:09:21.579Z,51.20
2019-03-16T16:11:49.214Z,52.20
2019-03-16T16:14:16.964Z,52.80
2019-03-16T16:16:44.598Z,51.50
2019-03-16T16:19:14.523Z,52.60
2019-03-16T16:21:43.340Z,54.20
2019-03-16T16:24:11.074Z,55.50
2019-03-16T16:26:38.836Z,56.80
2019-03-16T16:29:06.484Z,57.90
2019-03-16T16:31:34.099Z,58.50
2019-03-16T16:34:02.958Z,59.50
2019-03-16T16:36:30.750Z,60.40
2019-03-16T16:39:00.178Z,61.90
2019-03-16T16:41:28.582Z,62.60
2019-03-16T16:43:56.800Z,63.00
2019-03-16T16:46:25.216Z,63.00
2019-03-16T16:48:52.859Z,63.70
2019-03-16T16:51:20.541Z,64.70
2019-03-16T16:53:48.242Z,65.30
2019-03-16T16:56:15.846Z,66.50
2019-03-16T16:58:43.482Z,67.10
2019-03-16T17:01:11.154Z,67.60
2019-03-16T17:03:38.773Z,68.60
2019-03-16T17:06:06.452Z,69.70
2019-03-16T17:08:34.108Z,70.40
2019-03-16T17:11:02.322Z,71.30
2019-03-16T17:13:31.393Z,71.30
2019-03-16T17:15:58.843Z,71.70
2019-03-16T17:18:26.516Z,72.10
2019-03-16T17:20:54.048Z,74.00
2019-03-16T17:23:21.647Z,74.80
2019-03-16T17:25:49.227Z,74.70
2019-03-16T17:28:16.766Z,74.50
2019-03-16T17:30:44.302Z,75.90
2019-03-16T17:33:11.861Z,75.70
2019-03-16T17:35:39.505Z,76.00
2019-03-16T17:38:06.998Z,76.60
2019-03-16T17:40:34.622Z,77.20
2019-03-16T17:43:02.229Z,78.70
2019-03-16T17:45:29.770Z,77.80
2019-03-16T17:47:57.338Z,78.30
2019-03-16T17:50:24.901Z,79.40
2019-03-16T17:52:52.461Z,79.80
2019-03-16T17:55:20.041Z,79.70
2019-03-16T17:57:47.613Z,80.40
2019-03-16T18:00:15.161Z,80.30
2019-03-16T18:02:51.258Z,81.50
2019-03-16T18:05:12.327Z,82.00
2019-03-16T18:07:39.828Z,82.10
2019-03-16T18:10:07.530Z,82.30
2019-03-16T18:12:35.211Z,82.50
2019-03-16T18:15:03.088Z,83.30
2019-03-16T18:17:30.647Z,83.70
2019-03-16T18:19:58.289Z,83.60
2019-03-16T18:22:26.078Z,83.00
2019-03-16T18:24:53.558Z,83.90
2019-03-16T18:27:21.203Z,83.90
2019-03-16T18:29:48.732Z,83.90
2019-03-16T18:32:16.249Z,83.30
2019-03-16T18:34:43.787Z,83.20
2019-03-16T18:37:11.372Z,83.20
2019-03-16T18:39:38.895Z,83.90
2019-03-16T18:42:06.406Z,84.40
2019-03-16T18:44:34.072Z,84.20
2019-03-16T18:47:01.632Z,84.40
2019-03-16T18:49:29.187Z,84.80
2019-03-16T18:51:56.737Z,86.10
2019-03-16T18:54:24.363Z,85.90
2019-03-16T18:56:52.489Z,86.90
2019-03-16T18:59:20.409Z,87.30
2019-03-16T19:01:48.174Z,87.50
2019-03-16T19:04:15.760Z,87.80
2019-03-16T19:06:43.339Z,88.40
2019-03-16T19:09:11.015Z,88.10
2019-03-16T19:11:38.535Z,88.70
2019-03-16T19:14:06.078Z,88.40
2019-03-16T19:16:33.662Z,88.20
2019-03-16T19:19:01.205Z,89.00
2019-03-16T19:21:28.785Z,88.90
2019-03-16T19:23:57.024Z,89.80
2019-03-16T19:26:24.935Z,88.60
2019-03-16T19:28:52.667Z,88.90
2019-03-16T19:31:21.712Z,88.80
2019-03-16T19:33:52.774Z,89.00
2019-03-16T19:36:20.818Z,89.00
2019-03-16T19:38:48.459Z,89.30
2019-03-16T19:41:16.108Z,89.80
2019-03-16T19:43:43.790Z,90.00
2019-03-16T19:46:11.406Z,91.50
2019-03-16T19:48:41.967Z,91.20
2019-03-16T19:51:10.758Z,91.80
2019-03-16T19:53:41.803Z,91.80
2019-03-16T19:56:11.693Z,91.90
2019-03-16T19:58:40.925Z,92.00
2019-03-16T20:01:11.496Z,92.30
2019-03-16T20:03:44.802Z,92.30
2019-03-16T20:06:25.238Z,92.30
2019-03-16T20:08:43.428Z,92.30
2019-03-16T20:11:11.826Z,92.20
2019-03-16T20:13:59.724Z,92.90
2019-03-16T20:16:37.913Z,93.60
2019-03-16T20:19:28.106Z,93.20
2019-03-16T20:22:02.366Z,93.30
2019-03-16T20:24:54.436Z,93.10
2019-03-16T20:27:23.696Z,94.40
2019-03-16T20:30:03.122Z,93.80
2019-03-16T20:32:35.049Z,93.50
2019-03-16T20:35:05.068Z,93.70
2019-03-16T20:37:56.744Z,94.70
2019-03-16T20:40:28.910Z,95.20
2019-03-16T20:43:37.347Z,94.80
2019-03-16T20:46:20.717Z,95.20
2019-03-16T20:49:09.280Z,95.10
2019-03-16T20:52:23.477Z,95.00
2019-03-16T20:54:54.396Z,94.70
2019-03-16T20:57:42.598Z,95.60
2019-03-16T21:00:12.298Z,95.50
2019-03-16T21:03:22.333Z,95.40
2019-03-16T21:05:58.616Z,95.00
2019-03-16T21:08:28.484Z,94.30
2019-03-16T21:11:00.555Z,94.40
2019-03-16T21:13:33.652Z,94.60
2019-03-16T21:16:06.297Z,95.00
2019-03-16T21:18:37.257Z,95.10
2019-03-16T21:21:10.530Z,95.90
2019-03-16T21:23:46.222Z,96.90
2019-03-16T21:26:14.791Z,96.30
2019-03-16T21:28:49.255Z,97.10
2019-03-16T21:31:22.052Z,97.50
2019-03-16T21:33:55.725Z,98.60
2019-03-16T21:37:15.782Z,98.80
2019-03-16T21:44:04.269Z,99.10
2019-03-16T21:47:28.318Z,99.20
2019-03-16T21:49:58.793Z,99.90
2019-03-16T21:56:00.326Z,99.90
2019-03-16T21:59:00.748Z,99.90
2019-03-16T22:05:04.819Z,99.90
2019-03-16T22:08:04.816Z,99.90
2019-03-16T22:10:34.525Z,99.90
2019-03-16T22:13:07.767Z,99.90
2019-03-16T22:15:41.758Z,99.90
2019-03-16T22:18:20.177Z,99.90
2019-03-16T22:20:55.820Z,99.90
2019-03-16T22:23:24.413Z,99.30
2019-03-16T22:25:57.484Z,99.00
2019-03-16T22:28:45.873Z,98.70
2019-03-16T22:31:19.761Z,98.80
2019-03-16T22:33:58.807Z,99.50
2019-03-16T22:36:30.132Z,99.70
2019-03-16T22:39:19.331Z,99.90
2019-03-16T22:42:19.075Z,99.60
2019-03-16T22:44:57.870Z,99.90
2019-03-16T22:47:26.972Z,99.10
2019-03-16T22:49:55.543Z,99.20
2019-03-16T22:52:31.566Z,99.50
2019-03-16T22:55:09.900Z,99.90
2019-03-16T22:57:39.915Z,99.90
2019-03-16T23:00:12.152Z,99.90
2019-03-16T23:02:43.106Z,99.90
2019-03-16T23:05:10.927Z,99.90
2019-03-16T23:07:38.545Z,99.90
2019-03-16T23:10:07.549Z,99.90
2019-03-16T23:12:35.192Z,99.90
2019-03-16T23:15:03.377Z,99.90
2019-03-16T23:17:31.217Z,99.90
2019-03-16T23:19:58.778Z,99.90
2019-03-16T23:22:26.529Z,99.90
2019-03-16T23:24:54.150Z,99.90
2019-03-16T23:27:21.889Z,99.90
2019-03-16T23:29:49.517Z,99.90
2019-03-16T23:32:17.687Z,99.90
2019-03-16T23:34:45.200Z,99.90
2019-03-16T23:37:12.850Z,99.90
2019-03-16T23:39:40.468Z,99.90
2019-03-16T23:42:08.081Z,99.90
2019-03-16T23:44:36.110Z,99.90
2019-03-16T23:47:03.794Z,99.90
2019-03-16T23:49:31.382Z,99.90
2019-03-16T23:51:58.989Z,99.90
2019-03-16T23:54:26.717Z,99.90
2019-03-16T23:56:55.019Z,99.90
2019-03-16T23:59:22.796Z,99.90
